Wellton, Arizona
Current Conditions -  °F | °C
As of 10:57 PM on Friday 19 Dec 2014 (Local Time) from KNYL Reporting Station
Scattered Clouds Scattered Clouds  
Wind Chill: 12°   Ceiling: Unl
Heat Index: 12°   Visibility: 10mi
Dew Point:   Wind: 0mph
Humidity: 69%   Direction: NA
Pressure: 30.14"   Gusts: NA
Location:  32.67°N, 114.15°W
Report Text: KNYL 200557Z 00000KT 10SM SCT250 12/06 A3014 RMK AO2 SLP204 T01170061 58002
Loading
Personal Weather Stations






























Interactive Weather Map New forecast layout! Learn more

10-Day Weather Forecast

Advertisements
Track Severe Weather on mobile